createdAt,value
2023-01-23T00:01:00.136Z,12.37
2023-01-23T00:03:26.720Z,12.47
2023-01-23T00:06:02.479Z,12.93
2023-01-23T00:08:29.421Z,12.60
2023-01-23T00:10:56.341Z,13.43
2023-01-23T00:13:23.160Z,12.47
2023-01-23T00:15:52.390Z,13.17
2023-01-23T00:18:19.044Z,12.87
2023-01-23T00:20:45.600Z,11.90
2023-01-23T00:23:12.646Z,12.77
2023-01-23T00:25:39.330Z,11.90
2023-01-23T00:28:06.153Z,12.50
2023-01-23T00:30:33.719Z,11.67
2023-01-23T00:33:00.611Z,12.17
2023-01-23T00:35:27.384Z,12.03
2023-01-23T00:37:54.014Z,13.00
2023-01-23T00:40:20.801Z,11.97
2023-01-23T00:42:47.551Z,12.20
2023-01-23T00:45:14.318Z,11.43
2023-01-23T00:47:40.905Z,11.80
2023-01-23T00:50:07.890Z,11.47
2023-01-23T00:52:35.319Z,11.53
2023-01-23T00:55:02.407Z,11.43
2023-01-23T00:57:31.691Z,11.53
2023-01-23T00:59:58.434Z,11.43
2023-01-23T01:02:28.100Z,11.73
2023-01-23T01:04:54.770Z,10.73
2023-01-23T01:07:21.474Z,11.73
2023-01-23T01:09:50.853Z,11.00
2023-01-23T01:12:19.298Z,11.73
2023-01-23T01:14:46.004Z,11.10
2023-01-23T01:17:12.667Z,12.37
2023-01-23T01:19:39.477Z,11.83
2023-01-23T01:22:06.133Z,11.07
2023-01-23T01:24:32.877Z,11.23
2023-01-23T01:26:59.468Z,11.40
2023-01-23T01:29:26.173Z,11.33
2023-01-23T01:31:52.833Z,11.53
2023-01-23T01:34:19.381Z,10.77
2023-01-23T01:36:46.037Z,10.63
2023-01-23T01:39:12.671Z,11.07
2023-01-23T01:41:39.385Z,10.60
2023-01-23T01:44:08.895Z,11.13
2023-01-23T01:46:36.181Z,11.70
2023-01-23T01:49:06.260Z,10.77
2023-01-23T01:51:35.867Z,11.70
2023-01-23T01:54:33.250Z,12.43
2023-01-23T01:57:12.012Z,11.83
2023-01-23T01:59:49.380Z,12.50
2023-01-23T02:02:23.858Z,12.53
2023-01-23T02:04:53.004Z,11.73
2023-01-23T02:07:26.300Z,12.33
2023-01-23T02:09:52.930Z,13.10
2023-01-23T02:12:19.675Z,12.07
2023-01-23T02:14:46.482Z,12.80
2023-01-23T02:17:13.021Z,13.03
2023-01-23T02:19:47.759Z,13.23
2023-01-23T02:22:20.041Z,13.60
2023-01-23T02:25:03.668Z,14.00
2023-01-23T02:27:30.912Z,13.30
2023-01-23T02:29:57.574Z,14.60
2023-01-23T02:32:27.680Z,14.20
2023-01-23T02:34:56.952Z,13.23
2023-01-23T02:37:28.232Z,13.80
2023-01-23T02:39:57.614Z,13.53
2023-01-23T02:42:25.287Z,12.93
2023-01-23T02:44:56.202Z,13.37
2023-01-23T02:47:23.121Z,13.20
2023-01-23T02:49:49.767Z,12.93
2023-01-23T02:52:16.541Z,13.73
2023-01-23T02:54:43.302Z,13.20
2023-01-23T02:57:09.971Z,12.87
2023-01-23T02:59:55.161Z,13.13
2023-01-23T03:02:22.068Z,12.77
2023-01-23T03:04:48.745Z,13.00
2023-01-23T03:07:15.767Z,13.87
2023-01-23T03:09:43.832Z,12.87
2023-01-23T03:12:10.785Z,13.47
2023-01-23T03:14:37.560Z,12.87
2023-01-23T03:17:04.291Z,13.40
2023-01-23T03:19:31.369Z,13.97
2023-01-23T03:21:57.908Z,14.03
2023-01-23T03:24:25.932Z,12.97
2023-01-23T03:26:52.491Z,13.77
2023-01-23T03:29:43.130Z,13.83
2023-01-23T03:32:10.819Z,13.37
2023-01-23T03:34:37.814Z,12.57
2023-01-23T03:37:05.535Z,13.87
2023-01-23T03:39:50.686Z,14.73
2023-01-23T03:42:17.312Z,13.60
2023-01-23T03:44:44.083Z,13.00
2023-01-23T03:47:10.747Z,14.10
2023-01-23T03:49:37.491Z,13.70
2023-01-23T03:52:04.164Z,14.10
2023-01-23T03:54:30.744Z,14.20
2023-01-23T03:56:57.752Z,15.40
2023-01-23T03:59:24.411Z,14.97
2023-01-23T04:01:51.320Z,15.53
2023-01-23T04:04:17.924Z,14.87
2023-01-23T04:06:44.532Z,15.20
2023-01-23T04:09:14.077Z,15.80
2023-01-23T04:11:40.640Z,14.37
2023-01-23T04:14:07.321Z,14.90
2023-01-23T04:16:34.044Z,15.03
2023-01-23T04:19:00.831Z,15.33
2023-01-23T04:21:27.600Z,14.40
2023-01-23T04:23:54.391Z,14.50
2023-01-23T04:26:20.997Z,15.00
2023-01-23T04:28:47.648Z,14.03
2023-01-23T04:31:14.582Z,13.97
2023-01-23T04:33:41.174Z,15.00
2023-01-23T04:36:08.292Z,16.37
2023-01-23T04:38:35.583Z,14.77
2023-01-23T04:41:02.470Z,16.00
2023-01-23T04:43:29.216Z,15.97
2023-01-23T04:45:56.809Z,14.47
2023-01-23T04:48:24.674Z,14.57
2023-01-23T04:50:51.794Z,14.73
2023-01-23T04:53:18.788Z,14.73
2023-01-23T04:55:49.263Z,14.23
2023-01-23T04:58:17.227Z,15.13
2023-01-23T05:00:44.061Z,14.23
2023-01-23T05:03:10.768Z,14.63
2023-01-23T05:05:37.431Z,16.10
2023-01-23T05:08:04.245Z,14.23
2023-01-23T05:10:30.812Z,16.07
2023-01-23T05:12:57.660Z,15.37
2023-01-23T05:15:24.275Z,15.10
2023-01-23T05:17:50.802Z,14.77
2023-01-23T05:20:17.923Z,15.20
2023-01-23T05:22:53.768Z,15.73
2023-01-23T05:25:25.565Z,15.37
2023-01-23T05:27:52.527Z,15.17
2023-01-23T05:30:21.721Z,14.80
2023-01-23T05:32:49.191Z,16.95
2023-01-23T05:35:16.455Z,15.67
2023-01-23T05:37:43.236Z,14.77
2023-01-23T05:40:11.876Z,14.43
2023-01-23T05:42:38.562Z,14.53
2023-01-23T05:45:05.723Z,15.00
2023-01-23T05:47:32.313Z,13.70
2023-01-23T05:50:01.629Z,14.80
2023-01-23T05:52:28.393Z,14.37
2023-01-23T05:54:55.116Z,14.63
2023-01-23T05:57:22.083Z,14.97
2023-01-23T05:59:48.816Z,14.47
2023-01-23T06:02:15.441Z,14.53
2023-01-23T06:04:42.078Z,15.33
2023-01-23T06:07:14.689Z,15.27
2023-01-23T06:09:41.414Z,15.17
2023-01-23T06:12:09.406Z,15.23
2023-01-23T06:14:36.300Z,15.57
2023-01-23T06:17:02.925Z,15.47
2023-01-23T06:19:29.829Z,15.37
2023-01-23T06:21:56.616Z,15.50
2023-01-23T06:24:23.192Z,14.00
2023-01-23T06:26:50.274Z,14.77
2023-01-23T06:29:16.946Z,15.40
2023-01-23T06:31:43.795Z,15.43
2023-01-23T06:34:10.383Z,15.00
2023-01-23T06:36:36.967Z,15.93
2023-01-23T06:39:03.737Z,15.17
2023-01-23T06:41:30.304Z,14.73
2023-01-23T06:43:56.950Z,15.50
2023-01-23T06:46:24.139Z,15.67
2023-01-23T06:48:52.566Z,15.67
2023-01-23T06:51:19.180Z,15.90
2023-01-23T06:53:45.934Z,15.90
2023-01-23T06:56:12.613Z,15.63
2023-01-23T06:58:39.255Z,14.63
2023-01-23T07:01:15.952Z,15.57
2023-01-23T07:03:47.172Z,14.97
2023-01-23T07:06:15.005Z,14.70
2023-01-23T07:08:41.898Z,13.80
2023-01-23T07:11:09.095Z,14.47
2023-01-23T07:13:35.691Z,15.40
2023-01-23T07:16:02.919Z,15.17
2023-01-23T07:18:30.703Z,15.23
2023-01-23T07:20:57.628Z,14.37
2023-01-23T07:23:24.264Z,15.07
2023-01-23T07:25:50.951Z,14.50
2023-01-23T07:28:17.607Z,13.80
2023-01-23T07:30:44.285Z,14.23
2023-01-23T07:33:12.230Z,14.73
2023-01-23T07:35:39.577Z,14.90
2023-01-23T07:38:06.196Z,14.90
2023-01-23T07:40:33.099Z,14.20
2023-01-23T07:42:59.712Z,15.33
2023-01-23T07:45:26.444Z,14.33
2023-01-23T07:47:53.015Z,15.87
2023-01-23T07:50:19.764Z,13.90
2023-01-23T07:52:46.476Z,14.23
2023-01-23T07:55:13.055Z,14.10
2023-01-23T07:57:39.632Z,14.80
2023-01-23T08:00:07.192Z,14.90
2023-01-23T08:02:33.856Z,14.63
2023-01-23T08:05:00.448Z,14.17
2023-01-23T08:07:29.665Z,14.93
2023-01-23T08:09:59.209Z,13.63
2023-01-23T08:12:25.791Z,15.57
2023-01-23T08:14:53.542Z,12.73
2023-01-23T08:17:21.412Z,13.63
2023-01-23T08:19:48.003Z,12.93
2023-01-23T08:22:14.604Z,12.10
2023-01-23T08:24:41.200Z,12.27
2023-01-23T08:27:07.952Z,13.47
2023-01-23T08:29:34.533Z,13.30
2023-01-23T08:32:01.528Z,13.07
2023-01-23T08:34:28.140Z,12.07
2023-01-23T08:36:54.868Z,11.50
2023-01-23T08:39:21.715Z,12.83
2023-01-23T08:41:48.298Z,12.33
2023-01-23T08:44:15.005Z,11.57
2023-01-23T08:46:43.307Z,11.63
2023-01-23T08:49:11.311Z,12.23
2023-01-23T08:51:38.096Z,11.13
2023-01-23T08:54:04.922Z,12.90
2023-01-23T08:56:31.494Z,11.63
2023-01-23T08:58:58.146Z,11.37
2023-01-23T09:01:26.597Z,11.80
2023-01-23T09:03:53.531Z,11.17
2023-01-23T09:06:21.641Z,10.67
2023-01-23T09:08:48.426Z,10.57
2023-01-23T09:11:15.179Z,11.50
2023-01-23T09:13:41.756Z,12.07
2023-01-23T09:16:08.749Z,10.83
2023-01-23T09:18:35.755Z,10.83
2023-01-23T09:21:11.445Z,12.23
2023-01-23T09:23:38.441Z,11.37
2023-01-23T09:26:11.190Z,10.90
2023-01-23T09:28:38.953Z,11.13
2023-01-23T09:31:10.935Z,10.87
2023-01-23T09:33:38.300Z,10.73
2023-01-23T09:36:05.507Z,10.03
2023-01-23T09:38:34.230Z,10.57
2023-01-23T09:41:09.217Z,10.70
2023-01-23T09:43:42.816Z,9.77
2023-01-23T09:46:29.104Z,10.00
2023-01-23T09:49:08.238Z,9.70
2023-01-23T09:51:37.794Z,10.30
2023-01-23T09:54:18.632Z,9.93
2023-01-23T09:56:46.424Z,9.70
2023-01-23T09:59:18.095Z,9.60
2023-01-23T10:01:44.751Z,9.70
2023-01-23T10:04:12.762Z,10.23
2023-01-23T10:07:00.972Z,10.70
2023-01-23T10:09:37.206Z,9.53
2023-01-23T10:12:16.374Z,10.43
2023-01-23T10:15:21.949Z,9.97
2023-01-23T10:17:59.967Z,9.90
2023-01-23T10:20:45.855Z,9.40
2023-01-23T10:23:18.353Z,8.63
2023-01-23T10:25:45.131Z,9.63
2023-01-23T10:28:23.533Z,8.57
2023-01-23T10:30:54.851Z,9.53
2023-01-23T10:33:22.375Z,9.37
2023-01-23T10:35:53.676Z,9.60
2023-01-23T10:38:23.468Z,8.57
2023-01-23T10:41:08.779Z,9.27
2023-01-23T10:43:35.740Z,9.67
2023-01-23T10:46:08.931Z,9.33
2023-01-23T10:48:36.236Z,8.90
2023-01-23T10:51:04.778Z,10.13
2023-01-23T10:53:31.966Z,10.57
2023-01-23T10:55:59.789Z,9.70
2023-01-23T10:58:37.604Z,10.00
2023-01-23T11:01:05.365Z,10.57
2023-01-23T11:03:35.162Z,9.67
2023-01-23T11:06:05.062Z,11.00
2023-01-23T11:08:34.262Z,9.80
2023-01-23T11:11:16.415Z,10.87
2023-01-23T11:13:45.276Z,10.60
2023-01-23T11:16:17.493Z,9.23
2023-01-23T11:18:52.808Z,11.07
2023-01-23T11:21:30.789Z,11.30
2023-01-23T11:24:38.140Z,13.67
2023-01-23T11:27:15.235Z,13.00
2023-01-23T11:30:03.315Z,10.33
2023-01-23T11:32:33.428Z,10.77
2023-01-23T11:35:13.952Z,9.90
2023-01-23T11:37:41.098Z,9.30
2023-01-23T11:40:12.931Z,8.33
2023-01-23T11:42:41.349Z,8.90
2023-01-23T11:45:38.119Z,8.40
2023-01-23T11:48:38.676Z,7.40
2023-01-23T11:51:11.399Z,7.20
2023-01-23T11:54:01.263Z,7.20
2023-01-23T11:56:39.929Z,7.07
2023-01-23T11:59:10.908Z,6.60
2023-01-23T12:02:15.272Z,7.50
2023-01-23T12:04:53.834Z,6.67
2023-01-23T12:07:24.872Z,6.53
2023-01-23T12:10:18.890Z,6.80
2023-01-23T12:12:51.908Z,7.87
2023-01-23T12:15:31.554Z,7.27
2023-01-23T12:20:33.296Z,8.27
2023-01-23T12:23:13.241Z,8.67
2023-01-23T12:25:41.782Z,10.40
2023-01-23T12:28:42.563Z,9.27
2023-01-23T12:31:12.032Z,9.73
2023-01-23T12:34:09.964Z,9.23
2023-01-23T12:37:08.639Z,10.00
2023-01-23T12:40:01.024Z,11.03
2023-01-23T12:42:43.125Z,11.30
2023-01-23T12:45:31.855Z,10.20
2023-01-23T12:48:21.860Z,10.63
2023-01-23T12:51:00.464Z,10.83
2023-01-23T12:53:28.315Z,10.90
2023-01-23T12:56:06.694Z,11.60
2023-01-23T12:58:36.625Z,11.83
2023-01-23T13:01:22.231Z,12.20
2023-01-23T13:03:57.989Z,10.47
2023-01-23T13:06:43.249Z,11.07
2023-01-23T13:09:21.860Z,10.80
2023-01-23T13:12:22.841Z,11.20
2023-01-23T13:15:14.007Z,11.10
2023-01-23T13:17:48.580Z,10.13
2023-01-23T13:20:44.668Z,10.73
2023-01-23T13:23:20.236Z,10.70
2023-01-23T13:25:47.019Z,10.97
2023-01-23T13:28:48.256Z,10.90
2023-01-23T13:31:34.831Z,10.43
2023-01-23T13:34:14.941Z,10.47
2023-01-23T13:36:46.642Z,11.57
2023-01-23T13:39:22.768Z,10.37
2023-01-23T13:42:12.518Z,11.43
2023-01-23T13:45:14.426Z,10.30
2023-01-23T14:22:15.800Z,9.87
2023-01-23T14:24:47.828Z,9.80
2023-01-23T14:27:21.953Z,10.23
2023-01-23T14:30:01.751Z,9.90
2023-01-23T14:32:31.646Z,9.93
2023-01-23T14:34:58.722Z,10.47
2023-01-23T14:37:25.934Z,10.30
2023-01-23T14:39:53.664Z,10.53
2023-01-23T14:42:26.977Z,10.00
2023-01-23T14:44:56.809Z,10.77
2023-01-23T14:47:34.270Z,10.97
2023-01-23T14:50:02.921Z,11.83
2023-01-23T14:52:30.770Z,10.97
2023-01-23T14:55:01.175Z,10.70
2023-01-23T14:57:34.160Z,10.17
2023-01-23T15:00:00.717Z,10.80
2023-01-23T15:02:33.977Z,10.57
2023-01-23T15:05:12.845Z,11.33
2023-01-23T15:07:44.089Z,10.87
2023-01-23T15:10:19.472Z,11.30
2023-01-23T15:12:56.138Z,10.73
2023-01-23T15:15:24.061Z,9.37
2023-01-23T15:17:51.635Z,10.70
2023-01-23T15:20:28.374Z,10.27
2023-01-23T15:22:55.042Z,11.30
2023-01-23T15:25:32.850Z,11.07
2023-01-23T15:27:59.494Z,11.20
2023-01-23T15:30:40.803Z,10.53
2023-01-23T15:33:24.659Z,11.43
2023-01-23T15:35:51.451Z,10.63
2023-01-23T15:38:18.483Z,11.10
2023-01-23T15:40:45.130Z,10.43
2023-01-23T15:43:18.873Z,10.67
2023-01-23T15:45:46.391Z,11.27
2023-01-23T15:48:13.101Z,11.87
2023-01-23T15:50:39.797Z,11.80
2023-01-23T15:53:14.097Z,12.10
2023-01-23T15:55:41.000Z,11.53
2023-01-23T15:58:11.996Z,11.83
2023-01-23T16:00:38.584Z,11.33
2023-01-23T16:03:05.417Z,10.90
2023-01-23T16:05:35.582Z,11.27
2023-01-23T16:08:03.409Z,12.33
2023-01-23T16:10:35.991Z,11.60
2023-01-23T16:13:03.547Z,12.33
2023-01-23T16:15:33.015Z,12.63
2023-01-23T16:18:00.629Z,12.10
2023-01-23T16:20:35.902Z,12.57
2023-01-23T16:23:14.210Z,12.17
2023-01-23T16:25:45.977Z,12.07
2023-01-23T16:28:24.281Z,11.00
2023-01-23T16:30:52.047Z,11.17
2023-01-23T16:33:19.452Z,11.00
2023-01-23T16:35:46.647Z,11.10
2023-01-23T16:38:20.441Z,10.57
2023-01-23T16:40:49.290Z,11.13
2023-01-23T16:43:15.862Z,11.17
2023-01-23T16:45:42.590Z,11.17
2023-01-23T16:48:10.983Z,11.90
2023-01-23T16:50:45.847Z,11.93
2023-01-23T16:53:30.645Z,10.77
2023-01-23T16:55:58.592Z,10.87
2023-01-23T16:58:30.922Z,11.23
2023-01-23T17:01:04.554Z,11.33
2023-01-23T17:03:34.571Z,9.90
2023-01-23T17:06:01.339Z,10.07
2023-01-23T17:08:28.444Z,9.90
2023-01-23T17:10:58.806Z,10.33
2023-01-23T17:13:26.225Z,10.83
2023-01-23T17:15:55.602Z,10.53
2023-01-23T17:18:25.510Z,10.43
2023-01-23T17:20:56.024Z,10.47
2023-01-23T17:23:24.326Z,9.60
2023-01-23T17:26:00.488Z,10.90
2023-01-23T17:28:28.179Z,10.33
2023-01-23T17:30:55.472Z,10.27
2023-01-23T17:33:24.481Z,10.13
2023-01-23T17:35:52.096Z,10.20
2023-01-23T17:38:22.519Z,10.83
2023-01-23T17:40:49.997Z,10.43
2023-01-23T17:43:17.776Z,11.17
2023-01-23T17:45:46.208Z,10.80
2023-01-23T17:48:14.620Z,10.03
2023-01-23T17:50:45.561Z,10.67
2023-01-23T17:53:16.540Z,10.07
2023-01-23T17:55:47.011Z,10.03
2023-01-23T17:58:14.456Z,11.07
2023-01-23T18:00:43.633Z,11.27
2023-01-23T18:03:14.229Z,10.97
2023-01-23T18:05:41.025Z,11.27
2023-01-23T18:08:10.601Z,11.20
2023-01-23T18:10:43.949Z,11.00
2023-01-23T18:13:10.580Z,10.17
2023-01-23T18:15:49.380Z,11.07
2023-01-23T18:18:19.248Z,11.00
2023-01-23T18:20:46.325Z,10.60
2023-01-23T18:23:13.135Z,11.20
2023-01-23T18:25:46.667Z,10.73
2023-01-23T18:28:22.150Z,11.03
2023-01-23T18:31:03.183Z,10.27
2023-01-23T18:33:41.963Z,11.40
2023-01-23T18:36:27.968Z,10.33
2023-01-23T18:39:03.448Z,10.70
2023-01-23T18:41:30.346Z,11.47
2023-01-23T18:44:20.794Z,10.77
2023-01-23T18:46:50.264Z,9.97
2023-01-23T18:49:31.390Z,10.70
2023-01-23T18:52:22.984Z,10.53
2023-01-23T18:54:59.087Z,11.87
2023-01-23T18:57:29.132Z,13.20
2023-01-23T19:00:32.029Z,13.23
2023-01-23T19:03:10.657Z,11.03
2023-01-23T19:05:37.389Z,11.47
2023-01-23T19:08:04.262Z,12.00
2023-01-23T19:10:47.600Z,10.80
2023-01-23T19:13:47.394Z,16.87
2023-01-23T19:16:31.436Z,26.80
2023-01-23T19:19:15.770Z,19.77
2023-01-23T19:21:43.036Z,23.47
2023-01-23T19:24:12.587Z,17.97
2023-01-23T19:26:42.708Z,15.73
2023-01-23T19:29:26.082Z,18.63
2023-01-23T19:32:04.716Z,12.97
2023-01-23T19:34:32.169Z,10.03
2023-01-23T19:36:58.909Z,10.77
2023-01-23T19:39:25.775Z,11.10
2023-01-23T19:41:53.419Z,10.73
2023-01-23T19:44:24.367Z,11.13
2023-01-23T19:46:51.421Z,11.23
2023-01-23T19:49:18.642Z,10.83
2023-01-23T19:51:45.287Z,11.07
2023-01-23T19:54:14.398Z,11.87
2023-01-23T19:56:42.410Z,11.37
2023-01-23T19:59:09.367Z,11.70
2023-01-23T20:01:40.139Z,11.93
2023-01-23T20:04:18.001Z,10.70
2023-01-23T20:06:49.155Z,11.30
2023-01-23T20:09:16.252Z,10.90
2023-01-23T20:11:43.544Z,11.40
2023-01-23T20:14:10.610Z,10.33
2023-01-23T20:16:40.463Z,11.33
2023-01-23T20:19:07.689Z,11.67
2023-01-23T20:21:34.367Z,14.33
2023-01-23T20:24:01.155Z,13.20
2023-01-23T20:26:27.817Z,13.37
2023-01-23T20:28:54.520Z,13.10
2023-01-23T20:31:21.769Z,14.53
2023-01-23T20:33:48.961Z,14.37
2023-01-23T20:36:16.006Z,14.67
2023-01-23T20:38:43.039Z,14.70
2023-01-23T20:41:15.373Z,14.77
2023-01-23T20:43:45.340Z,14.77
2023-01-23T20:46:13.039Z,14.60
2023-01-23T20:48:41.927Z,15.43
2023-01-23T20:51:09.823Z,14.80
2023-01-23T20:53:39.486Z,15.57
2023-01-23T20:56:27.714Z,14.80
2023-01-23T20:59:13.926Z,14.33
2023-01-23T21:02:00.117Z,13.90
2023-01-23T21:04:29.684Z,16.63
2023-01-23T21:06:56.850Z,13.93
2023-01-23T21:09:23.938Z,14.47
2023-01-23T21:11:51.524Z,13.83
2023-01-23T21:14:19.059Z,12.60
2023-01-23T21:16:47.639Z,11.50
2023-01-23T21:19:14.657Z,12.23
2023-01-23T21:21:41.796Z,11.47
2023-01-23T21:24:09.121Z,12.17
2023-01-23T21:26:37.220Z,12.93
2023-01-23T21:29:04.714Z,13.43
2023-01-23T21:31:34.063Z,13.53
2023-01-23T21:34:13.436Z,12.53
2023-01-23T21:36:41.737Z,12.33
2023-01-23T21:39:10.363Z,12.33
2023-01-23T21:41:37.263Z,11.90
2023-01-23T21:44:04.310Z,11.13
2023-01-23T21:46:32.606Z,12.03
2023-01-23T21:48:59.365Z,11.80
2023-01-23T21:51:27.830Z,11.80
2023-01-23T21:53:54.753Z,9.90
2023-01-23T21:56:22.796Z,11.33
2023-01-23T21:58:50.703Z,11.40
2023-01-23T22:01:41.193Z,10.67
2023-01-23T22:04:18.444Z,9.63
2023-01-23T22:06:46.368Z,10.00
2023-01-23T22:09:18.081Z,9.83
2023-01-23T22:11:45.277Z,10.60
2023-01-23T22:14:12.148Z,11.13
2023-01-23T22:16:49.103Z,9.97
2023-01-23T22:19:22.165Z,9.93
2023-01-23T22:21:50.177Z,10.67
2023-01-23T22:24:17.027Z,8.53
2023-01-23T22:26:43.864Z,9.50
2023-01-23T22:29:12.342Z,9.00
2023-01-23T22:31:39.059Z,9.27
2023-01-23T22:34:05.869Z,9.90
2023-01-23T22:36:32.415Z,9.90
2023-01-23T22:38:59.100Z,10.10
2023-01-23T22:41:26.417Z,8.77
2023-01-23T22:43:56.222Z,9.47
2023-01-23T22:46:23.749Z,8.70
2023-01-23T22:48:50.825Z,9.47
2023-01-23T22:51:20.062Z,9.13
2023-01-23T22:53:46.834Z,9.40
2023-01-23T22:56:13.871Z,10.60
2023-01-23T22:58:44.238Z,9.40
2023-01-23T23:01:11.433Z,9.57
2023-01-23T23:03:38.092Z,10.17
2023-01-23T23:06:06.964Z,9.77
2023-01-23T23:08:34.166Z,10.13
2023-01-23T23:11:11.369Z,9.63
2023-01-23T23:13:40.353Z,9.67
2023-01-23T23:16:17.802Z,8.77
2023-01-23T23:18:48.770Z,10.37
2023-01-23T23:21:17.583Z,10.30
2023-01-23T23:23:44.885Z,9.87
2023-01-23T23:26:12.187Z,9.47
2023-01-23T23:28:39.251Z,9.73
2023-01-23T23:31:07.312Z,9.50
2023-01-23T23:33:34.287Z,9.87
2023-01-23T23:36:00.989Z,9.27
2023-01-23T23:38:27.745Z,8.67
2023-01-23T23:41:00.185Z,8.43
2023-01-23T23:43:28.524Z,8.80
2023-01-23T23:46:00.719Z,8.23
2023-01-23T23:48:28.540Z,8.43
2023-01-23T23:50:55.566Z,8.53
2023-01-23T23:53:22.969Z,8.77
2023-01-23T23:55:50.382Z,9.10
2023-01-23T23:58:17.049Z,8.90
